sensor_id;sensor_type;location;lat;lon;timestamp;temperature;humidity
13711;DHT22;6927;51.256;9.410;2022-12-29T00:00:13;8.30;99.90
13711;DHT22;6927;51.256;9.410;2022-12-29T00:02:39;8.30;99.90
13711;DHT22;6927;51.256;9.410;2022-12-29T00:05:05;8.30;99.90
13711;DHT22;6927;51.256;9.410;2022-12-29T00:07:30;8.40;99.90
13711;DHT22;6927;51.256;9.410;2022-12-29T00:09:56;8.40;99.90
13711;DHT22;6927;51.256;9.410;2022-12-29T00:12:21;8.40;99.90
13711;DHT22;6927;51.256;9.410;2022-12-29T00:14:47;8.50;99.90
13711;DHT22;6927;51.256;9.410;2022-12-29T00:17:31;8.50;99.90
13711;DHT22;6927;51.256;9.410;2022-12-29T00:19:57;8.60;99.90
13711;DHT22;6927;51.256;9.410;2022-12-29T00:22:41;8.70;99.90
13711;DHT22;6927;51.256;9.410;2022-12-29T00:25:25;8.60;99.90
13711;DHT22;6927;51.256;9.410;2022-12-29T00:28:09;8.60;99.90
13711;DHT22;6927;51.256;9.410;2022-12-29T00:30:53;8.70;99.90
13711;DHT22;6927;51.256;9.410;2022-12-29T00:33:37;8.70;99.90
13711;DHT22;6927;51.256;9.410;2022-12-29T00:36:35;8.80;99.90
13711;DHT22;6927;51.256;9.410;2022-12-29T00:39:16;8.80;99.90
13711;DHT22;6927;51.256;9.410;2022-12-29T00:42:08;8.80;99.90
13711;DHT22;6927;51.256;9.410;2022-12-29T00:45:03;8.90;99.90
13711;DHT22;6927;51.256;9.410;2022-12-29T00:47:29;8.80;99.90
13711;DHT22;6927;51.256;9.410;2022-12-29T00:49:55;8.80;99.90
13711;DHT22;6927;51.256;9.410;2022-12-29T00:52:23;8.80;99.90
13711;DHT22;6927;51.256;9.410;2022-12-29T00:54:48;8.80;99.90
13711;DHT22;6927;51.256;9.410;2022-12-29T00:57:17;8.80;99.90
13711;DHT22;6927;51.256;9.410;2022-12-29T00:59:43;8.80;99.90
13711;DHT22;6927;51.256;9.410;2022-12-29T01:02:11;8.80;99.90
13711;DHT22;6927;51.256;9.410;2022-12-29T01:04:36;8.80;99.90
13711;DHT22;6927;51.256;9.410;2022-12-29T01:07:02;8.80;99.90
13711;DHT22;6927;51.256;9.410;2022-12-29T01:09:28;8.90;99.90
13711;DHT22;6927;51.256;9.410;2022-12-29T01:12:12;8.90;99.90
13711;DHT22;6927;51.256;9.410;2022-12-29T01:14:38;9.00;99.90
13711;DHT22;6927;51.256;9.410;2022-12-29T01:17:04;8.90;99.90
13711;DHT22;6927;51.256;9.410;2022-12-29T01:19:30;9.00;99.90
13711;DHT22;6927;51.256;9.410;2022-12-29T01:21:56;9.00;99.90
13711;DHT22;6927;51.256;9.410;2022-12-29T01:24:22;9.00;99.90
13711;DHT22;6927;51.256;9.410;2022-12-29T01:26:50;9.10;99.90
13711;DHT22;6927;51.256;9.410;2022-12-29T01:29:16;9.10;99.90
13711;DHT22;6927;51.256;9.410;2022-12-29T01:31:42;9.10;99.90
13711;DHT22;6927;51.256;9.410;2022-12-29T01:34:08;9.10;99.90
13711;DHT22;6927;51.256;9.410;2022-12-29T01:36:33;9.10;99.90
13711;DHT22;6927;51.256;9.410;2022-12-29T01:38:59;9.20;99.90
13711;DHT22;6927;51.256;9.410;2022-12-29T01:41:25;9.20;99.90
13711;DHT22;6927;51.256;9.410;2022-12-29T01:43:54;9.20;99.90
13711;DHT22;6927;51.256;9.410;2022-12-29T01:46:39;9.30;99.90
13711;DHT22;6927;51.256;9.410;2022-12-29T01:49:12;9.30;99.90
13711;DHT22;6927;51.256;9.410;2022-12-29T01:51:42;9.30;99.90
13711;DHT22;6927;51.256;9.410;2022-12-29T01:54:13;9.30;99.90
13711;DHT22;6927;51.256;9.410;2022-12-29T01:56:39;9.30;99.90
13711;DHT22;6927;51.256;9.410;2022-12-29T01:59:12;9.30;99.90
13711;DHT22;6927;51.256;9.410;2022-12-29T02:01:40;9.30;99.90
13711;DHT22;6927;51.256;9.410;2022-12-29T02:04:06;9.30;99.90
13711;DHT22;6927;51.256;9.410;2022-12-29T02:06:50;9.40;99.90
13711;DHT22;6927;51.256;9.410;2022-12-29T02:09:17;9.40;99.90
13711;DHT22;6927;51.256;9.410;2022-12-29T02:11:43;9.40;99.90
13711;DHT22;6927;51.256;9.410;2022-12-29T02:14:13;9.40;99.90
13711;DHT22;6927;51.256;9.410;2022-12-29T02:25:32;9.50;99.90
13711;DHT22;6927;51.256;9.410;2022-12-29T02:42:35;9.50;99.90
13711;DHT22;6927;51.256;9.410;2022-12-29T02:45:26;9.40;99.90
13711;DHT22;6927;51.256;9.410;2022-12-29T02:48:08;9.40;99.90
13711;DHT22;6927;51.256;9.410;2022-12-29T02:50:39;9.40;99.90
13711;DHT22;6927;51.256;9.410;2022-12-29T02:53:15;9.40;99.90
13711;DHT22;6927;51.256;9.410;2022-12-29T02:55:51;9.40;99.90
13711;DHT22;6927;51.256;9.410;2022-12-29T02:58:19;9.40;99.90
13711;DHT22;6927;51.256;9.410;2022-12-29T03:04:03;9.40;99.90
13711;DHT22;6927;51.256;9.410;2022-12-29T03:07:11;9.40;99.90
13711;DHT22;6927;51.256;9.410;2022-12-29T03:09:55;9.30;99.90
13711;DHT22;6927;51.256;9.410;2022-12-29T03:12:35;9.40;99.90
13711;DHT22;6927;51.256;9.410;2022-12-29T03:15:28;9.40;99.90
13711;DHT22;6927;51.256;9.410;2022-12-29T03:18:29;9.40;99.90
13711;DHT22;6927;51.256;9.410;2022-12-29T03:24:10;9.40;99.90
13711;DHT22;6927;51.256;9.410;2022-12-29T03:26:37;9.40;99.90
13711;DHT22;6927;51.256;9.410;2022-12-29T03:29:08;9.30;99.90
13711;DHT22;6927;51.256;9.410;2022-12-29T03:31:35;9.30;99.90
13711;DHT22;6927;51.256;9.410;2022-12-29T03:34:03;9.40;99.90
13711;DHT22;6927;51.256;9.410;2022-12-29T03:36:49;9.30;99.90
13711;DHT22;6927;51.256;9.410;2022-12-29T03:39:18;9.40;99.90
13711;DHT22;6927;51.256;9.410;2022-12-29T03:41:50;9.40;99.90
13711;DHT22;6927;51.256;9.410;2022-12-29T03:44:47;9.50;99.90
13711;DHT22;6927;51.256;9.410;2022-12-29T03:47:32;9.60;99.90
13711;DHT22;6927;51.256;9.410;2022-12-29T03:50:32;9.60;99.90
13711;DHT22;6927;51.256;9.410;2022-12-29T03:53:32;9.70;99.90
13711;DHT22;6927;51.256;9.410;2022-12-29T03:56:01;9.70;99.90
13711;DHT22;6927;51.256;9.410;2022-12-29T03:58:44;9.70;99.90
13711;DHT22;6927;51.256;9.410;2022-12-29T04:01:13;9.80;99.90
13711;DHT22;6927;51.256;9.410;2022-12-29T04:07:10;9.90;99.90
13711;DHT22;6927;51.256;9.410;2022-12-29T04:09:42;9.90;99.90
13711;DHT22;6927;51.256;9.410;2022-12-29T04:12:28;9.90;99.90
13711;DHT22;6927;51.256;9.410;2022-12-29T04:14:53;9.90;99.90
13711;DHT22;6927;51.256;9.410;2022-12-29T04:17:22;10.10;99.90
13711;DHT22;6927;51.256;9.410;2022-12-29T04:19:48;10.10;99.90
13711;DHT22;6927;51.256;9.410;2022-12-29T04:22:14;10.20;99.90
13711;DHT22;6927;51.256;9.410;2022-12-29T04:25:09;10.20;99.90
13711;DHT22;6927;51.256;9.410;2022-12-29T04:27:41;10.20;99.90
13711;DHT22;6927;51.256;9.410;2022-12-29T04:30:13;10.10;99.90
13711;DHT22;6927;51.256;9.410;2022-12-29T04:32:47;9.90;99.90
13711;DHT22;6927;51.256;9.410;2022-12-29T04:35:20;9.90;99.90
13711;DHT22;6927;51.256;9.410;2022-12-29T04:37:45;9.80;99.90
13711;DHT22;6927;51.256;9.410;2022-12-29T04:40:11;9.80;99.90
13711;DHT22;6927;51.256;9.410;2022-12-29T04:42:37;9.70;99.90
13711;DHT22;6927;51.256;9.410;2022-12-29T04:45:03;9.70;99.90
13711;DHT22;6927;51.256;9.410;2022-12-29T04:47:28;9.70;99.90
13711;DHT22;6927;51.256;9.410;2022-12-29T04:49:54;9.60;99.90
13711;DHT22;6927;51.256;9.410;2022-12-29T04:52:19;9.60;99.90
13711;DHT22;6927;51.256;9.410;2022-12-29T04:54:45;9.50;99.90
13711;DHT22;6927;51.256;9.410;2022-12-29T04:57:11;9.50;99.90
13711;DHT22;6927;51.256;9.410;2022-12-29T04:59:36;9.50;99.90
13711;DHT22;6927;51.256;9.410;2022-12-29T05:02:02;9.50;99.90
13711;DHT22;6927;51.256;9.410;2022-12-29T05:04:27;9.50;99.90
13711;DHT22;6927;51.256;9.410;2022-12-29T05:06:53;9.50;99.90
13711;DHT22;6927;51.256;9.410;2022-12-29T05:09:19;9.50;99.90
13711;DHT22;6927;51.256;9.410;2022-12-29T05:11:47;9.50;99.90
13711;DHT22;6927;51.256;9.410;2022-12-29T05:14:12;9.40;99.90
13711;DHT22;6927;51.256;9.410;2022-12-29T05:16:38;9.50;99.90
13711;DHT22;6927;51.256;9.410;2022-12-29T05:19:04;9.50;99.90
13711;DHT22;6927;51.256;9.410;2022-12-29T05:21:29;9.50;99.90
13711;DHT22;6927;51.256;9.410;2022-12-29T05:23:58;9.50;99.90
13711;DHT22;6927;51.256;9.410;2022-12-29T05:26:23;9.60;99.90
13711;DHT22;6927;51.256;9.410;2022-12-29T05:28:49;9.60;99.90
13711;DHT22;6927;51.256;9.410;2022-12-29T05:31:14;9.70;99.90
13711;DHT22;6927;51.256;9.410;2022-12-29T05:33:40;9.80;99.90
13711;DHT22;6927;51.256;9.410;2022-12-29T05:36:07;9.80;99.90
13711;DHT22;6927;51.256;9.410;2022-12-29T05:38:34;9.90;99.90
13711;DHT22;6927;51.256;9.410;2022-12-29T05:41:00;9.90;99.90
13711;DHT22;6927;51.256;9.410;2022-12-29T05:43:25;9.90;99.90
13711;DHT22;6927;51.256;9.410;2022-12-29T05:45:52;9.90;99.90
13711;DHT22;6927;51.256;9.410;2022-12-29T05:48:20;9.90;99.90
13711;DHT22;6927;51.256;9.410;2022-12-29T05:51:01;9.80;99.90
13711;DHT22;6927;51.256;9.410;2022-12-29T05:53:29;9.70;99.90
13711;DHT22;6927;51.256;9.410;2022-12-29T05:55:54;9.70;99.90
13711;DHT22;6927;51.256;9.410;2022-12-29T05:58:20;9.60;99.90
13711;DHT22;6927;51.256;9.410;2022-12-29T06:00:46;9.50;99.90
13711;DHT22;6927;51.256;9.410;2022-12-29T06:03:11;9.50;99.90
13711;DHT22;6927;51.256;9.410;2022-12-29T06:05:37;9.50;99.90
13711;DHT22;6927;51.256;9.410;2022-12-29T06:08:03;9.40;99.90
13711;DHT22;6927;51.256;9.410;2022-12-29T06:10:28;9.40;99.90
13711;DHT22;6927;51.256;9.410;2022-12-29T06:12:54;9.50;99.90
13711;DHT22;6927;51.256;9.410;2022-12-29T06:15:19;9.50;99.90
13711;DHT22;6927;51.256;9.410;2022-12-29T06:17:48;9.50;99.90
13711;DHT22;6927;51.256;9.410;2022-12-29T06:20:13;9.50;99.90
13711;DHT22;6927;51.256;9.410;2022-12-29T06:22:39;9.60;99.90
13711;DHT22;6927;51.256;9.410;2022-12-29T06:25:05;9.60;99.90
13711;DHT22;6927;51.256;9.410;2022-12-29T06:27:31;9.60;99.90
13711;DHT22;6927;51.256;9.410;2022-12-29T06:30:02;9.60;99.90
13711;DHT22;6927;51.256;9.410;2022-12-29T06:32:28;9.70;99.90
13711;DHT22;6927;51.256;9.410;2022-12-29T06:34:53;9.70;99.90
13711;DHT22;6927;51.256;9.410;2022-12-29T06:37:22;9.70;99.90
13711;DHT22;6927;51.256;9.410;2022-12-29T06:39:50;9.60;99.90
13711;DHT22;6927;51.256;9.410;2022-12-29T06:42:16;9.50;99.90
13711;DHT22;6927;51.256;9.410;2022-12-29T06:44:57;9.40;99.90
13711;DHT22;6927;51.256;9.410;2022-12-29T06:47:28;9.30;99.90
13711;DHT22;6927;51.256;9.410;2022-12-29T06:49:54;9.30;99.90
13711;DHT22;6927;51.256;9.410;2022-12-29T06:52:20;9.20;99.90
13711;DHT22;6927;51.256;9.410;2022-12-29T06:54:46;9.20;99.90
13711;DHT22;6927;51.256;9.410;2022-12-29T06:57:11;9.10;99.90
13711;DHT22;6927;51.256;9.410;2022-12-29T06:59:37;9.10;99.90
13711;DHT22;6927;51.256;9.410;2022-12-29T07:02:11;9.10;99.90
13711;DHT22;6927;51.256;9.410;2022-12-29T07:04:37;9.10;99.90
13711;DHT22;6927;51.256;9.410;2022-12-29T07:07:02;9.00;99.90
13711;DHT22;6927;51.256;9.410;2022-12-29T07:09:28;9.00;99.90
13711;DHT22;6927;51.256;9.410;2022-12-29T07:11:54;9.00;99.90
13711;DHT22;6927;51.256;9.410;2022-12-29T07:14:19;9.00;99.90
13711;DHT22;6927;51.256;9.410;2022-12-29T07:16:45;9.00;99.90
13711;DHT22;6927;51.256;9.410;2022-12-29T07:19:12;9.00;99.90
13711;DHT22;6927;51.256;9.410;2022-12-29T07:21:38;8.90;99.90
13711;DHT22;6927;51.256;9.410;2022-12-29T07:24:04;9.00;99.90
13711;DHT22;6927;51.256;9.410;2022-12-29T07:26:50;9.00;99.90
13711;DHT22;6927;51.256;9.410;2022-12-29T07:29:18;9.00;99.90
13711;DHT22;6927;51.256;9.410;2022-12-29T07:31:44;9.00;99.90
13711;DHT22;6927;51.256;9.410;2022-12-29T07:34:10;9.00;99.90
13711;DHT22;6927;51.256;9.410;2022-12-29T07:36:35;9.00;99.90
13711;DHT22;6927;51.256;9.410;2022-12-29T07:39:01;9.00;99.90
13711;DHT22;6927;51.256;9.410;2022-12-29T07:41:27;9.00;99.90
13711;DHT22;6927;51.256;9.410;2022-12-29T07:43:53;9.00;99.90
13711;DHT22;6927;51.256;9.410;2022-12-29T07:46:19;9.00;99.90
13711;DHT22;6927;51.256;9.410;2022-12-29T07:48:46;9.00;99.90
13711;DHT22;6927;51.256;9.410;2022-12-29T07:51:15;9.00;99.90
13711;DHT22;6927;51.256;9.410;2022-12-29T07:53:40;9.10;99.90
13711;DHT22;6927;51.256;9.410;2022-12-29T07:56:06;9.10;99.90
13711;DHT22;6927;51.256;9.410;2022-12-29T07:58:32;9.10;99.90
13711;DHT22;6927;51.256;9.410;2022-12-29T08:00:57;9.10;99.90
13711;DHT22;6927;51.256;9.410;2022-12-29T08:03:23;9.10;99.90
13711;DHT22;6927;51.256;9.410;2022-12-29T08:05:50;9.10;99.90
13711;DHT22;6927;51.256;9.410;2022-12-29T08:08:15;9.10;99.90
13711;DHT22;6927;51.256;9.410;2022-12-29T08:10:41;9.10;99.90
13711;DHT22;6927;51.256;9.410;2022-12-29T08:13:07;9.10;99.90
13711;DHT22;6927;51.256;9.410;2022-12-29T08:15:32;9.10;99.90
13711;DHT22;6927;51.256;9.410;2022-12-29T08:17:58;9.10;99.90
13711;DHT22;6927;51.256;9.410;2022-12-29T08:20:23;9.10;99.90
13711;DHT22;6927;51.256;9.410;2022-12-29T08:22:50;9.20;99.90
13711;DHT22;6927;51.256;9.410;2022-12-29T08:25:16;9.20;99.90
13711;DHT22;6927;51.256;9.410;2022-12-29T08:27:41;9.20;99.90
13711;DHT22;6927;51.256;9.410;2022-12-29T08:30:08;9.20;99.90
13711;DHT22;6927;51.256;9.410;2022-12-29T08:32:34;9.20;99.90
13711;DHT22;6927;51.256;9.410;2022-12-29T08:34:59;9.10;99.90
13711;DHT22;6927;51.256;9.410;2022-12-29T08:37:25;9.10;99.90
13711;DHT22;6927;51.256;9.410;2022-12-29T08:39:51;9.20;99.90
13711;DHT22;6927;51.256;9.410;2022-12-29T08:42:16;9.20;99.90
13711;DHT22;6927;51.256;9.410;2022-12-29T08:44:42;9.20;99.90
13711;DHT22;6927;51.256;9.410;2022-12-29T08:47:09;9.20;99.90
13711;DHT22;6927;51.256;9.410;2022-12-29T08:49:35;9.20;99.90
13711;DHT22;6927;51.256;9.410;2022-12-29T08:52:07;9.20;99.90
13711;DHT22;6927;51.256;9.410;2022-12-29T08:54:33;9.20;99.90
13711;DHT22;6927;51.256;9.410;2022-12-29T08:57:01;9.30;99.90
13711;DHT22;6927;51.256;9.410;2022-12-29T08:59:26;9.20;99.90
13711;DHT22;6927;51.256;9.410;2022-12-29T09:01:52;9.20;99.90
13711;DHT22;6927;51.256;9.410;2022-12-29T09:04:18;9.20;99.90
13711;DHT22;6927;51.256;9.410;2022-12-29T09:06:46;9.20;99.90
13711;DHT22;6927;51.256;9.410;2022-12-29T09:09:14;9.20;99.90
13711;DHT22;6927;51.256;9.410;2022-12-29T09:11:40;9.20;99.90
13711;DHT22;6927;51.256;9.410;2022-12-29T09:14:09;9.20;99.90
13711;DHT22;6927;51.256;9.410;2022-12-29T09:16:36;9.20;99.90
13711;DHT22;6927;51.256;9.410;2022-12-29T09:19:07;9.20;99.90
13711;DHT22;6927;51.256;9.410;2022-12-29T09:21:33;9.20;99.90
13711;DHT22;6927;51.256;9.410;2022-12-29T09:24:01;9.20;99.90
13711;DHT22;6927;51.256;9.410;2022-12-29T09:26:29;9.30;99.90
13711;DHT22;6927;51.256;9.410;2022-12-29T09:28:55;9.30;99.90
13711;DHT22;6927;51.256;9.410;2022-12-29T09:31:22;9.30;99.90
13711;DHT22;6927;51.256;9.410;2022-12-29T09:33:47;9.40;99.90
13711;DHT22;6927;51.256;9.410;2022-12-29T09:36:13;9.40;99.90
13711;DHT22;6927;51.256;9.410;2022-12-29T09:38:38;9.40;99.90
13711;DHT22;6927;51.256;9.410;2022-12-29T09:41:21;9.50;99.90
13711;DHT22;6927;51.256;9.410;2022-12-29T09:44:03;9.50;99.90
13711;DHT22;6927;51.256;9.410;2022-12-29T09:46:37;9.60;99.90
13711;DHT22;6927;51.256;9.410;2022-12-29T09:52:11;9.70;99.90
13711;DHT22;6927;51.256;9.410;2022-12-29T09:54:52;9.80;99.90
13711;DHT22;6927;51.256;9.410;2022-12-29T10:00:06;9.90;99.90
13711;DHT22;6927;51.256;9.410;2022-12-29T10:05:46;11.20;99.90
13711;DHT22;6927;51.256;9.410;2022-12-29T10:10:56;13.00;99.90
13711;DHT22;6927;51.256;9.410;2022-12-29T10:16:26;12.40;99.90
13711;DHT22;6927;51.256;9.410;2022-12-29T10:24:38;12.10;99.90
13711;DHT22;6927;51.256;9.410;2022-12-29T10:27:09;11.80;99.90
13711;DHT22;6927;51.256;9.410;2022-12-29T10:29:40;11.60;99.90
13711;DHT22;6927;51.256;9.410;2022-12-29T10:34:49;11.50;99.90
13711;DHT22;6927;51.256;9.410;2022-12-29T10:42:45;11.00;99.90
13711;DHT22;6927;51.256;9.410;2022-12-29T10:45:15;10.90;99.90
13711;DHT22;6927;51.256;9.410;2022-12-29T10:48:09;10.90;99.90
13711;DHT22;6927;51.256;9.410;2022-12-29T10:50:37;11.30;99.90
13711;DHT22;6927;51.256;9.410;2022-12-29T10:53:15;11.40;99.90
13711;DHT22;6927;51.256;9.410;2022-12-29T10:55:42;11.40;99.90
13711;DHT22;6927;51.256;9.410;2022-12-29T10:58:11;11.20;99.90
13711;DHT22;6927;51.256;9.410;2022-12-29T11:00:37;11.10;99.90
13711;DHT22;6927;51.256;9.410;2022-12-29T11:05:57;10.70;99.90
13711;DHT22;6927;51.256;9.410;2022-12-29T11:08:31;10.60;99.90
13711;DHT22;6927;51.256;9.410;2022-12-29T11:11:04;10.60;99.90
13711;DHT22;6927;51.256;9.410;2022-12-29T11:13:36;10.60;99.90
13711;DHT22;6927;51.256;9.410;2022-12-29T11:16:11;10.60;99.90
13711;DHT22;6927;51.256;9.410;2022-12-29T11:18:38;10.60;99.90
13711;DHT22;6927;51.256;9.410;2022-12-29T11:21:30;10.70;99.90
13711;DHT22;6927;51.256;9.410;2022-12-29T11:24:04;10.70;99.90
13711;DHT22;6927;51.256;9.410;2022-12-29T11:26:31;10.80;99.90
13711;DHT22;6927;51.256;9.410;2022-12-29T11:29:20;10.80;99.90
13711;DHT22;6927;51.256;9.410;2022-12-29T11:31:51;10.80;99.90
13711;DHT22;6927;51.256;9.410;2022-12-29T11:34:32;10.80;99.90
13711;DHT22;6927;51.256;9.410;2022-12-29T11:37:39;10.80;99.90
13711;DHT22;6927;51.256;9.410;2022-12-29T11:40:30;10.80;99.90
13711;DHT22;6927;51.256;9.410;2022-12-29T11:43:04;10.90;99.90
13711;DHT22;6927;51.256;9.410;2022-12-29T11:45:35;10.80;99.90
13711;DHT22;6927;51.256;9.410;2022-12-29T11:48:32;10.80;99.90
13711;DHT22;6927;51.256;9.410;2022-12-29T11:50:59;10.80;99.90
13711;DHT22;6927;51.256;9.410;2022-12-29T11:53:37;10.80;99.90
13711;DHT22;6927;51.256;9.410;2022-12-29T11:56:08;10.80;99.90
13711;DHT22;6927;51.256;9.410;2022-12-29T11:58:38;10.90;99.90
13711;DHT22;6927;51.256;9.410;2022-12-29T12:01:10;10.80;99.90
13711;DHT22;6927;51.256;9.410;2022-12-29T12:03:46;10.80;99.90
13711;DHT22;6927;51.256;9.410;2022-12-29T12:06:16;10.70;99.90
13711;DHT22;6927;51.256;9.410;2022-12-29T12:11:33;10.70;99.90
13711;DHT22;6927;51.256;9.410;2022-12-29T12:14:23;10.70;99.90
13711;DHT22;6927;51.256;9.410;2022-12-29T12:17:11;10.80;99.90
13711;DHT22;6927;51.256;9.410;2022-12-29T12:19:59;10.80;99.90
13711;DHT22;6927;51.256;9.410;2022-12-29T12:22:58;10.80;99.90
13711;DHT22;6927;51.256;9.410;2022-12-29T12:25:42;10.80;99.90
13711;DHT22;6927;51.256;9.410;2022-12-29T12:28:19;10.80;99.90
13711;DHT22;6927;51.256;9.410;2022-12-29T12:30:48;10.70;99.90
13711;DHT22;6927;51.256;9.410;2022-12-29T12:33:22;10.70;99.90
13711;DHT22;6927;51.256;9.410;2022-12-29T12:36:32;10.70;99.90
13711;DHT22;6927;51.256;9.410;2022-12-29T12:39:12;10.70;99.90
13711;DHT22;6927;51.256;9.410;2022-12-29T12:47:45;10.70;99.90
13711;DHT22;6927;51.256;9.410;2022-12-29T12:53:16;10.80;99.90
13711;DHT22;6927;51.256;9.410;2022-12-29T12:58:49;10.80;99.90
13711;DHT22;6927;51.256;9.410;2022-12-29T13:02:01;10.80;99.90
13711;DHT22;6927;51.256;9.410;2022-12-29T13:04:28;10.80;99.90
13711;DHT22;6927;51.256;9.410;2022-12-29T13:07:17;10.80;99.90
13711;DHT22;6927;51.256;9.410;2022-12-29T13:09:48;10.80;99.90
13711;DHT22;6927;51.256;9.410;2022-12-29T13:15:34;10.90;99.90
13711;DHT22;6927;51.256;9.410;2022-12-29T13:20:41;11.00;99.90
13711;DHT22;6927;51.256;9.410;2022-12-29T13:23:26;10.90;99.90
13711;DHT22;6927;51.256;9.410;2022-12-29T13:26:11;10.90;99.90
13711;DHT22;6927;51.256;9.410;2022-12-29T13:34:05;10.90;99.90
13711;DHT22;6927;51.256;9.410;2022-12-29T13:36:47;10.90;99.90
13711;DHT22;6927;51.256;9.410;2022-12-29T13:39:36;10.90;99.90
13711;DHT22;6927;51.256;9.410;2022-12-29T13:42:03;10.90;99.90
13711;DHT22;6927;51.256;9.410;2022-12-29T13:44:44;10.90;99.90
13711;DHT22;6927;51.256;9.410;2022-12-29T13:47:37;10.90;99.90
13711;DHT22;6927;51.256;9.410;2022-12-29T13:50:06;10.90;99.90
13711;DHT22;6927;51.256;9.410;2022-12-29T13:52:51;10.80;99.90
13711;DHT22;6927;51.256;9.410;2022-12-29T13:55:32;10.80;99.90
13711;DHT22;6927;51.256;9.410;2022-12-29T14:01:46;10.70;99.90
13711;DHT22;6927;51.256;9.410;2022-12-29T14:03:48;10.70;99.90
13711;DHT22;6927;51.256;9.410;2022-12-29T14:06:19;10.70;99.90
13711;DHT22;6927;51.256;9.410;2022-12-29T14:08:46;10.60;99.90
13711;DHT22;6927;51.256;9.410;2022-12-29T14:11:15;10.60;99.90
13711;DHT22;6927;51.256;9.410;2022-12-29T14:13:45;10.60;99.90
13711;DHT22;6927;51.256;9.410;2022-12-29T14:16:29;10.60;99.90
13711;DHT22;6927;51.256;9.410;2022-12-29T14:19:03;10.50;99.90
13711;DHT22;6927;51.256;9.410;2022-12-29T14:21:30;10.50;99.90
13711;DHT22;6927;51.256;9.410;2022-12-29T14:24:38;10.50;99.90
13711;DHT22;6927;51.256;9.410;2022-12-29T14:34:53;10.50;99.90
13711;DHT22;6927;51.256;9.410;2022-12-29T14:37:30;10.40;99.90
13711;DHT22;6927;51.256;9.410;2022-12-29T14:42:48;10.50;99.90
13711;DHT22;6927;51.256;9.410;2022-12-29T14:47:42;10.40;99.90
13711;DHT22;6927;51.256;9.410;2022-12-29T14:50:22;10.30;99.90
13711;DHT22;6927;51.256;9.410;2022-12-29T14:52:54;10.30;99.90
13711;DHT22;6927;51.256;9.410;2022-12-29T14:55:39;10.30;99.90
13711;DHT22;6927;51.256;9.410;2022-12-29T15:00:38;10.20;99.90
13711;DHT22;6927;51.256;9.410;2022-12-29T15:05:44;10.10;99.90
13711;DHT22;6927;51.256;9.410;2022-12-29T15:08:13;10.20;99.90
13711;DHT22;6927;51.256;9.410;2022-12-29T15:10:57;10.20;99.90
13711;DHT22;6927;51.256;9.410;2022-12-29T15:13:35;10.10;99.90
13711;DHT22;6927;51.256;9.410;2022-12-29T15:16:01;10.10;99.90
13711;DHT22;6927;51.256;9.410;2022-12-29T15:18:32;10.10;99.90
13711;DHT22;6927;51.256;9.410;2022-12-29T15:21:04;10.00;99.90
13711;DHT22;6927;51.256;9.410;2022-12-29T15:23:32;10.00;99.90
13711;DHT22;6927;51.256;9.410;2022-12-29T15:28:28;9.90;99.90
13711;DHT22;6927;51.256;9.410;2022-12-29T15:31:04;9.80;99.90
13711;DHT22;6927;51.256;9.410;2022-12-29T15:33:29;9.90;99.90
13711;DHT22;6927;51.256;9.410;2022-12-29T15:35:56;9.80;99.90
13711;DHT22;6927;51.256;9.410;2022-12-29T15:38:24;9.80;99.90
13711;DHT22;6927;51.256;9.410;2022-12-29T15:41:00;9.70;99.90
13711;DHT22;6927;51.256;9.410;2022-12-29T15:43:58;9.70;99.90
13711;DHT22;6927;51.256;9.410;2022-12-29T15:46:30;9.80;99.90
13711;DHT22;6927;51.256;9.410;2022-12-29T15:48:59;9.70;99.90
13711;DHT22;6927;51.256;9.410;2022-12-29T15:51:31;9.70;99.90
13711;DHT22;6927;51.256;9.410;2022-12-29T15:53:58;9.70;99.90
13711;DHT22;6927;51.256;9.410;2022-12-29T15:56:27;9.60;99.90
13711;DHT22;6927;51.256;9.410;2022-12-29T15:58:53;9.60;99.90
13711;DHT22;6927;51.256;9.410;2022-12-29T16:03:50;9.60;99.90
13711;DHT22;6927;51.256;9.410;2022-12-29T16:11:31;9.40;99.90
13711;DHT22;6927;51.256;9.410;2022-12-29T16:14:01;9.40;99.90
13711;DHT22;6927;51.256;9.410;2022-12-29T16:16:38;9.30;99.90
13711;DHT22;6927;51.256;9.410;2022-12-29T16:19:22;9.30;99.90
13711;DHT22;6927;51.256;9.410;2022-12-29T16:21:50;9.30;99.90
13711;DHT22;6927;51.256;9.410;2022-12-29T16:24:19;9.20;99.90
13711;DHT22;6927;51.256;9.410;2022-12-29T16:27:02;9.20;99.90
13711;DHT22;6927;51.256;9.410;2022-12-29T16:29:31;9.20;99.90
13711;DHT22;6927;51.256;9.410;2022-12-29T16:31:59;9.10;99.90
13711;DHT22;6927;51.256;9.410;2022-12-29T16:34:42;9.10;99.90
13711;DHT22;6927;51.256;9.410;2022-12-29T16:37:30;9.10;99.90
13711;DHT22;6927;51.256;9.410;2022-12-29T16:39:55;9.10;99.90
13711;DHT22;6927;51.256;9.410;2022-12-29T16:42:46;9.10;99.90
13711;DHT22;6927;51.256;9.410;2022-12-29T16:50:34;8.80;99.90
13711;DHT22;6927;51.256;9.410;2022-12-29T16:53:00;8.80;99.90
13711;DHT22;6927;51.256;9.410;2022-12-29T16:55:28;8.70;99.90
13711;DHT22;6927;51.256;9.410;2022-12-29T16:57:55;8.60;99.90
13711;DHT22;6927;51.256;9.410;2022-12-29T17:00:34;8.50;99.90
13711;DHT22;6927;51.256;9.410;2022-12-29T17:03:01;8.40;99.90
13711;DHT22;6927;51.256;9.410;2022-12-29T17:05:28;8.30;99.90
13711;DHT22;6927;51.256;9.410;2022-12-29T17:07:53;8.30;99.90
13711;DHT22;6927;51.256;9.410;2022-12-29T17:10:20;8.30;99.90
13711;DHT22;6927;51.256;9.410;2022-12-29T17:12:47;8.30;99.90
13711;DHT22;6927;51.256;9.410;2022-12-29T17:15:24;8.30;99.90
13711;DHT22;6927;51.256;9.410;2022-12-29T17:17:59;8.30;99.90
13711;DHT22;6927;51.256;9.410;2022-12-29T17:20:27;8.30;99.90
13711;DHT22;6927;51.256;9.410;2022-12-29T17:22:54;8.30;99.90
13711;DHT22;6927;51.256;9.410;2022-12-29T17:25:32;8.30;99.90
13711;DHT22;6927;51.256;9.410;2022-12-29T17:28:18;8.40;99.90
13711;DHT22;6927;51.256;9.410;2022-12-29T17:30:50;8.40;99.90
13711;DHT22;6927;51.256;9.410;2022-12-29T17:33:19;8.40;99.90
13711;DHT22;6927;51.256;9.410;2022-12-29T17:35:51;8.40;99.90
13711;DHT22;6927;51.256;9.410;2022-12-29T17:38:19;8.40;99.90
13711;DHT22;6927;51.256;9.410;2022-12-29T17:40:45;8.40;99.90
13711;DHT22;6927;51.256;9.410;2022-12-29T17:43:13;8.40;99.90
13711;DHT22;6927;51.256;9.410;2022-12-29T17:45:40;8.50;99.90
13711;DHT22;6927;51.256;9.410;2022-12-29T17:48:14;8.50;99.90
13711;DHT22;6927;51.256;9.410;2022-12-29T17:50:40;8.60;99.90
13711;DHT22;6927;51.256;9.410;2022-12-29T17:53:13;8.60;99.90
13711;DHT22;6927;51.256;9.410;2022-12-29T17:55:40;8.60;99.90
13711;DHT22;6927;51.256;9.410;2022-12-29T17:58:23;8.60;99.90
13711;DHT22;6927;51.256;9.410;2022-12-29T18:00:52;8.60;99.90
13711;DHT22;6927;51.256;9.410;2022-12-29T18:03:24;8.70;99.90
13711;DHT22;6927;51.256;9.410;2022-12-29T18:05:51;8.70;99.90
13711;DHT22;6927;51.256;9.410;2022-12-29T18:08:16;8.70;99.90
13711;DHT22;6927;51.256;9.410;2022-12-29T18:10:42;8.70;99.90
13711;DHT22;6927;51.256;9.410;2022-12-29T18:13:18;8.50;99.90
13711;DHT22;6927;51.256;9.410;2022-12-29T18:15:44;8.50;99.90
13711;DHT22;6927;51.256;9.410;2022-12-29T18:18:24;8.40;99.90
13711;DHT22;6927;51.256;9.410;2022-12-29T18:20:52;8.30;99.90
13711;DHT22;6927;51.256;9.410;2022-12-29T18:23:23;8.20;99.90
13711;DHT22;6927;51.256;9.410;2022-12-29T18:26:26;8.20;99.90
13711;DHT22;6927;51.256;9.410;2022-12-29T18:28:58;8.20;99.90
13711;DHT22;6927;51.256;9.410;2022-12-29T18:31:25;8.20;99.90
13711;DHT22;6927;51.256;9.410;2022-12-29T18:33:52;8.10;99.90